createdAt,value
2019-01-12T00:12:33.725Z,92.20
2019-01-12T00:27:36.301Z,92.40
2019-01-12T00:42:38.891Z,92.34
2019-01-12T00:57:42.025Z,91.99
2019-01-12T01:12:44.782Z,89.60
2019-01-12T01:27:48.286Z,86.11
2019-01-12T01:42:50.867Z,85.15
2019-01-12T01:57:54.867Z,84.84
2019-01-12T02:12:57.458Z,86.44
2019-01-12T02:28:00.787Z,85.41
2019-01-12T02:43:06.465Z,84.58
2019-01-12T02:58:09.847Z,84.10
2019-01-12T03:13:14.306Z,84.94
2019-01-12T03:28:16.870Z,84.91
2019-01-12T03:43:20.465Z,86.58
2019-01-12T03:58:23.020Z,84.09
2019-01-12T04:13:25.562Z,84.05
2019-01-12T04:28:28.121Z,84.69
2019-01-12T04:43:31.374Z,84.73
2019-01-12T04:58:34.805Z,83.77
2019-01-12T05:13:39.548Z,84.73
2019-01-12T05:28:42.143Z,84.25
2019-01-12T05:43:47.825Z,83.72
2019-01-12T05:58:50.945Z,82.84
2019-01-12T06:13:54.339Z,84.87
2019-01-12T06:28:56.899Z,85.07
2019-01-12T06:44:00.180Z,84.14
2019-01-12T06:59:02.753Z,83.33
2019-01-12T07:14:05.461Z,82.88
2019-01-12T07:29:09.570Z,79.31
2019-01-12T07:44:12.960Z,77.95
2019-01-12T07:59:15.513Z,78.13
2019-01-12T08:14:20.791Z,76.55
2019-01-12T08:29:24.924Z,75.98
2019-01-12T08:44:30.315Z,74.83
2019-01-12T08:59:32.873Z,75.81
2019-01-12T09:14:37.770Z,65.91
2019-01-12T09:29:40.341Z,71.39
2019-01-12T09:44:42.944Z,58.26
2019-01-12T09:59:46.204Z,50.33
2019-01-12T10:14:48.790Z,45.91
2019-01-12T10:29:52.651Z,50.37
2019-01-12T10:44:55.970Z,57.47
2019-01-12T10:59:58.552Z,65.92
2019-01-12T11:15:02.612Z,65.01
2019-01-12T11:30:10.417Z,61.37
2019-01-12T11:45:13.318Z,61.11
2019-01-12T12:00:24.909Z,57.09
2019-01-12T12:15:27.489Z,53.31
2019-01-12T12:30:30.365Z,55.14
2019-01-12T12:45:33.069Z,56.35
2019-01-12T13:00:36.580Z,59.17
2019-01-12T13:15:42.518Z,60.28
2019-01-12T13:30:45.246Z,63.39
2019-01-12T13:45:48.382Z,67.07
2019-01-12T14:00:51.956Z,68.78
2019-01-12T14:15:55.502Z,70.81
2019-01-12T14:30:58.868Z,72.31
2019-01-12T14:46:01.510Z,74.68
2019-01-12T15:01:04.857Z,75.71
2019-01-12T15:16:07.587Z,74.77
2019-01-12T15:31:10.752Z,75.94
2019-01-12T15:46:16.409Z,75.97
2019-01-12T16:01:19.915Z,75.78
2019-01-12T16:16:22.677Z,77.25
2019-01-12T16:31:25.320Z,76.75
2019-01-12T16:46:27.893Z,78.01
2019-01-12T17:01:30.495Z,79.70
2019-01-12T17:16:33.122Z,79.85
2019-01-12T17:31:37.120Z,79.17
2019-01-12T17:46:39.715Z,78.34
2019-01-12T18:01:42.328Z,76.85
2019-01-12T18:16:45.733Z,76.46
2019-01-12T18:31:49.484Z,77.50
2019-01-12T18:46:52.882Z,79.32
2019-01-12T19:01:57.861Z,80.49
2019-01-12T19:17:01.496Z,81.90
2019-01-12T19:32:06.007Z,82.82
2019-01-12T19:47:10.855Z,82.91
2019-01-12T20:02:13.901Z,84.21
2019-01-12T20:17:16.668Z,85.94
2019-01-12T20:32:24.196Z,86.44
2019-01-12T20:47:41.008Z,87.31
2019-01-12T21:18:17.751Z,89.19
2019-01-12T21:33:22.608Z,89.43
2019-01-12T21:48:25.944Z,89.09
2019-01-12T22:03:29.307Z,89.69
2019-01-12T22:18:32.037Z,89.13
2019-01-12T22:33:34.639Z,88.84
2019-01-12T22:48:37.271Z,88.14
2019-01-12T23:03:43.527Z,87.32
2019-01-12T23:18:46.064Z,86.99
2019-01-12T23:33:48.604Z,87.59
2019-01-12T23:48:52.660Z,86.71
